Time;durP1;ratioP1;P1;durP2;ratioP2;P2;SDS_P1;SDS_P2;PMS_P1;PMS_P2;Temp;Humidity;BMP_temperature;BMP_pressure;BME280_temperature;BME280_humidity;BME280_pressure;Samples;Min_cycle;Max_cycle;Signal;HPM_P1;HPM_P2
2022/02/24 00:00:31;;;;;;;0.50;0.30;;;;;;;;;;4133341;28;20062;-62
2022/02/24 00:02:33;;;;;;;0.60;0.30;;;;;;;;;;4115630;28;20059;-58
2022/02/24 00:04:34;;;;;;;0.77;0.30;;;;;;;;;;4133328;28;20062;-62
2022/02/24 00:06:35;;;;;;;0.70;0.30;;;;;;;;;;4133145;28;20061;-61
2022/02/24 00:08:36;;;;;;;1.10;0.40;;;;;;;;;;4133145;28;20109;-61
2022/02/24 00:10:37;;;;;;;1.38;0.20;;;;;;;;;;4133419;28;20058;-61
2022/02/24 00:12:39;;;;;;;1.42;0.20;;;;;;;;;;4133020;28;20065;-61
2022/02/24 00:14:40;;;;;;;1.02;0.20;;;;;;;;;;4132951;28;20690;-61
2022/02/24 00:16:41;;;;;;;0.50;0.20;;;;;;;;;;4131177;28;20104;-61
2022/02/24 00:18:42;;;;;;;0.95;0.28;;;;;;;;;;4133362;28;20058;-59
2022/02/24 00:20:43;;;;;;;0.85;0.30;;;;;;;;;;4115646;28;20058;-61
2022/02/24 00:22:44;;;;;;;1.23;0.30;;;;;;;;;;4132815;28;20332;-62
2022/02/24 00:24:45;;;;;;;1.52;0.30;;;;;;;;;;4133028;28;20113;-63
2022/02/24 00:26:46;;;;;;;0.93;0.35;;;;;;;;;;4132583;28;20050;-59
2022/02/24 00:28:48;;;;;;;0.57;0.30;;;;;;;;;;4132784;28;20085;-63
2022/02/24 00:30:49;;;;;;;0.73;0.32;;;;;;;;;;4132886;28;20299;-60
2022/02/24 00:32:50;;;;;;;1.27;0.22;;;;;;;;;;4132317;28;20501;-62
2022/02/24 00:34:52;;;;;;;0.75;0.30;;;;;;;;;;4131931;28;20051;-61
2022/02/24 00:36:54;;;;;;;1.05;0.30;;;;;;;;;;4132617;28;20506;-60
2022/02/24 00:38:55;;;;;;;1.92;0.40;;;;;;;;;;4132928;28;20132;-62
2022/02/24 00:40:56;;;;;;;0.75;0.30;;;;;;;;;;4132695;28;20086;-63
2022/02/24 00:42:58;;;;;;;1.02;0.25;;;;;;;;;;4132612;28;20062;-62
2022/02/24 00:44:59;;;;;;;0.88;0.30;;;;;;;;;;4132697;28;20057;-61
2022/02/24 00:47:00;;;;;;;0.57;0.38;;;;;;;;;;4146914;28;20453;-62
2022/02/24 00:49:01;;;;;;;0.90;0.20;;;;;;;;;;4132529;28;20078;-62
2022/02/24 00:51:03;;;;;;;0.47;0.30;;;;;;;;;;4132704;28;20065;-62
2022/02/24 00:53:04;;;;;;;0.60;0.40;;;;;;;;;;4132349;28;20058;-62
2022/02/24 00:55:06;;;;;;;0.75;0.20;;;;;;;;;;4132871;28;20104;-60
2022/02/24 00:57:07;;;;;;;0.40;0.30;;;;;;;;;;4132352;28;20069;-63
2022/02/24 00:59:08;;;;;;;0.43;0.10;;;;;;;;;;4132635;28;20054;-63
2022/02/24 01:01:09;;;;;;;1.60;0.40;;;;;;;;;;4132637;28;20104;-57
2022/02/24 01:03:10;;;;;;;1.17;0.30;;;;;;;;;;4131822;28;20066;-62
2022/02/24 01:05:11;;;;;;;1.40;0.45;;;;;;;;;;4147497;28;20057;-62
2022/02/24 01:07:12;;;;;;;0.65;0.30;;;;;;;;;;4132193;28;20101;-62
2022/02/24 01:09:14;;;;;;;0.77;0.40;;;;;;;;;;4147345;28;20085;-62
2022/02/24 01:11:15;;;;;;;1.20;0.50;;;;;;;;;;4147200;28;20524;-61
2022/02/24 01:13:16;;;;;;;1.15;0.30;;;;;;;;;;4132126;28;20557;-61
2022/02/24 01:15:17;;;;;;;2.00;0.60;;;;;;;;;;4132013;28;20089;-61
2022/02/24 01:17:18;;;;;;;1.42;0.30;;;;;;;;;;4146844;28;20112;-62
2022/02/24 01:19:19;;;;;;;0.95;0.30;;;;;;;;;;4132228;28;20112;-60
2022/02/24 01:21:20;;;;;;;1.27;0.38;;;;;;;;;;4132020;28;20058;-61
2022/02/24 01:23:24;;;;;;;1.65;0.52;;;;;;;;;;4132045;28;20061;-61
2022/02/24 01:25:25;;;;;;;0.47;0.20;;;;;;;;;;4132269;28;20054;-63
2022/02/24 01:27:26;;;;;;;0.40;0.20;;;;;;;;;;4131585;28;20054;-61
2022/02/24 01:29:27;;;;;;;1.15;0.63;;;;;;;;;;4132109;28;20058;-62
2022/02/24 01:31:28;;;;;;;1.15;0.60;;;;;;;;;;4132083;28;20069;-61
2022/02/24 01:33:29;;;;;;;1.13;0.20;;;;;;;;;;4131381;28;20117;-59
2022/02/24 01:35:31;;;;;;;0.85;0.35;;;;;;;;;;4132002;28;20050;-62
2022/02/24 01:37:32;;;;;;;1.23;0.30;;;;;;;;;;4130680;28;20058;-60
2022/02/24 01:39:33;;;;;;;1.70;0.45;;;;;;;;;;4132083;28;20054;-62
2022/02/24 01:41:34;;;;;;;0.95;0.30;;;;;;;;;;4131574;28;20140;-59
2022/02/24 01:43:35;;;;;;;0.90;0.20;;;;;;;;;;4131869;28;20054;-62
2022/02/24 01:45:36;;;;;;;1.17;0.45;;;;;;;;;;4131665;28;20569;-62
2022/02/24 01:47:38;;;;;;;1.25;0.30;;;;;;;;;;4131349;28;20109;-59
2022/02/24 01:49:40;;;;;;;0.93;0.32;;;;;;;;;;4131575;28;20082;-57
2022/02/24 01:51:41;;;;;;;0.57;0.30;;;;;;;;;;4130396;28;20083;-61
2022/02/24 01:53:42;;;;;;;1.15;0.50;;;;;;;;;;4131604;28;20058;-62
2022/02/24 01:55:43;;;;;;;1.40;0.30;;;;;;;;;;4114384;28;20059;-62
2022/02/24 01:57:45;;;;;;;1.90;0.52;;;;;;;;;;4131325;28;20499;-59
2022/02/24 01:59:46;;;;;;;1.77;0.20;;;;;;;;;;4131536;28;20112;-59
2022/02/24 02:01:47;;;;;;;0.98;0.40;;;;;;;;;;4132536;28;20108;-62
2022/02/24 02:03:49;;;;;;;1.48;0.55;;;;;;;;;;4141075;28;20401;-62
2022/02/24 02:05:51;;;;;;;0.80;0.45;;;;;;;;;;4139481;28;20515;-61
2022/02/24 02:07:52;;;;;;;0.70;0.30;;;;;;;;;;4126173;28;20066;-61
2022/02/24 02:09:54;;;;;;;1.27;0.40;;;;;;;;;;4139495;28;20058;-62
2022/02/24 02:11:55;;;;;;;0.75;0.30;;;;;;;;;;4131288;28;20062;-61
2022/02/24 02:13:56;;;;;;;1.77;0.30;;;;;;;;;;4131189;28;20061;-61
2022/02/24 02:15:57;;;;;;;0.95;0.32;;;;;;;;;;4131418;28;20116;-61
2022/02/24 02:17:58;;;;;;;0.73;0.40;;;;;;;;;;4130798;28;20486;-62
2022/02/24 02:20:00;;;;;;;0.60;0.20;;;;;;;;;;4130724;28;20465;-62
2022/02/24 02:22:01;;;;;;;0.65;0.30;;;;;;;;;;4130913;28;20117;-62
2022/02/24 02:24:03;;;;;;;1.40;0.40;;;;;;;;;;4131392;28;20112;-63
2022/02/24 02:26:05;;;;;;;1.25;0.38;;;;;;;;;;4129598;28;20097;-63
2022/02/24 02:28:06;;;;;;;1.48;0.50;;;;;;;;;;4130945;28;20469;-62
2022/02/24 02:30:08;;;;;;;0.95;0.38;;;;;;;;;;4131209;28;20054;-61
2022/02/24 02:32:09;;;;;;;1.25;0.30;;;;;;;;;;4129153;28;20062;-59
2022/02/24 02:34:16;;;;;;;1.70;0.40;;;;;;;;;;4131311;28;20311;-61
2022/02/24 02:36:17;;;;;;;0.82;0.35;;;;;;;;;;4126688;28;20136;-61
2022/02/24 02:38:18;;;;;;;0.52;0.28;;;;;;;;;;4135906;28;20449;-61
2022/02/24 02:40:20;;;;;;;1.17;0.55;;;;;;;;;;4134982;28;20116;-62
2022/02/24 02:42:21;;;;;;;0.98;0.32;;;;;;;;;;4130646;28;20113;-61
2022/02/24 02:44:22;;;;;;;0.80;0.30;;;;;;;;;;4130753;28;20066;-61
2022/02/24 02:46:23;;;;;;;1.95;0.60;;;;;;;;;;4130618;28;20438;-62
2022/02/24 02:48:24;;;;;;;0.60;0.22;;;;;;;;;;4130545;28;20050;-61
2022/02/24 02:50:26;;;;;;;0.73;0.40;;;;;;;;;;4129712;28;20093;-62
2022/02/24 02:52:27;;;;;;;0.63;0.30;;;;;;;;;;4130574;28;20109;-60
2022/02/24 02:54:28;;;;;;;1.10;0.40;;;;;;;;;;4113635;28;20054;-62
2022/02/24 02:56:29;;;;;;;1.40;0.52;;;;;;;;;;4130677;28;20581;-61
2022/02/24 02:58:30;;;;;;;1.15;0.50;;;;;;;;;;4130739;28;20173;-62
2022/02/24 03:00:31;;;;;;;1.27;0.47;;;;;;;;;;4130529;28;20474;-62
2022/02/24 03:02:32;;;;;;;1.02;0.35;;;;;;;;;;4130173;28;20062;-62
2022/02/24 03:04:33;;;;;;;1.67;0.47;;;;;;;;;;4130512;28;20556;-62
2022/02/24 03:06:34;;;;;;;0.55;0.30;;;;;;;;;;4145159;28;20058;-60
2022/02/24 03:08:35;;;;;;;1.15;0.50;;;;;;;;;;4130266;28;20097;-62
2022/02/24 03:10:36;;;;;;;2.33;0.52;;;;;;;;;;4142768;28;20049;-62
2022/02/24 03:12:38;;;;;;;0.30;0.20;;;;;;;;;;4142188;28;20057;-62
2022/02/24 03:14:39;;;;;;;1.42;0.43;;;;;;;;;;4145712;28;20501;-61
2022/02/24 03:16:40;;;;;;;0.88;0.20;;;;;;;;;;4146254;28;20068;-62
2022/02/24 03:18:41;;;;;;;1.05;0.50;;;;;;;;;;4136742;28;20130;-62
2022/02/24 03:20:43;;;;;;;0.47;0.25;;;;;;;;;;4135666;28;20105;-63
2022/02/24 03:22:44;;;;;;;1.23;0.50;;;;;;;;;;4145698;28;20058;-62
2022/02/24 03:24:46;;;;;;;0.20;0.20;;;;;;;;;;4146564;28;20058;-60
2022/02/24 03:26:49;;;;;;;0.98;0.30;;;;;;;;;;4133960;28;20065;-60
2022/02/24 03:28:50;;;;;;;0.80;0.35;;;;;;;;;;4130751;28;20085;-63
2022/02/24 03:30:51;;;;;;;1.23;0.40;;;;;;;;;;4129775;28;20195;-61
2022/02/24 03:32:53;;;;;;;1.10;0.32;;;;;;;;;;4144414;28;20062;-63
2022/02/24 03:34:54;;;;;;;0.82;0.30;;;;;;;;;;4130103;28;20491;-62
2022/02/24 03:36:55;;;;;;;1.20;0.35;;;;;;;;;;4134873;28;20104;-62
2022/02/24 03:38:57;;;;;;;0.50;0.20;;;;;;;;;;4140142;28;20060;-63
2022/02/24 03:40:58;;;;;;;0.90;0.40;;;;;;;;;;4114291;28;20055;-63
2022/02/24 03:42:59;;;;;;;1.27;0.40;;;;;;;;;;4114451;28;20129;-58
2022/02/24 03:45:01;;;;;;;0.70;0.30;;;;;;;;;;4144984;28;20065;-62
2022/02/24 03:47:02;;;;;;;0.75;0.30;;;;;;;;;;4145710;28;20058;-63
2022/02/24 03:49:03;;;;;;;0.50;0.30;;;;;;;;;;4146350;28;20054;-62
2022/02/24 03:51:05;;;;;;;0.82;0.30;;;;;;;;;;4146278;28;20109;-63
2022/02/24 03:53:06;;;;;;;2.08;0.50;;;;;;;;;;4146188;28;20371;-63
2022/02/24 03:55:08;;;;;;;0.98;0.40;;;;;;;;;;4145785;28;20061;-62
2022/02/24 03:57:10;;;;;;;1.20;0.40;;;;;;;;;;4112879;28;20101;-62
2022/02/24 03:59:11;;;;;;;1.67;0.40;;;;;;;;;;4129965;28;20070;-62
2022/02/24 04:01:13;;;;;;;2.03;0.40;;;;;;;;;;4128828;28;20474;-63
2022/02/24 04:03:14;;;;;;;0.95;0.30;;;;;;;;;;4144426;28;20112;-61
2022/02/24 04:05:16;;;;;;;3.45;0.35;;;;;;;;;;4130249;28;20066;-63
2022/02/24 04:07:17;;;;;;;1.02;0.40;;;;;;;;;;4129873;28;20483;-60
2022/02/24 04:09:18;;;;;;;0.90;0.30;;;;;;;;;;4130226;28;20061;-61
2022/02/24 04:11:19;;;;;;;1.02;0.30;;;;;;;;;;4144985;28;20058;-60
2022/02/24 04:13:21;;;;;;;1.05;0.50;;;;;;;;;;4129875;28;20100;-63
2022/02/24 04:15:23;;;;;;;1.48;0.50;;;;;;;;;;4128594;28;20405;-63
2022/02/24 04:17:24;;;;;;;0.60;0.30;;;;;;;;;;4129497;28;20110;-62
2022/02/24 04:19:26;;;;;;;1.42;0.40;;;;;;;;;;4130124;28;20108;-62
2022/02/24 04:21:27;;;;;;;1.20;0.85;;;;;;;;;;4130013;28;20058;-61
2022/02/24 04:23:28;;;;;;;1.30;0.40;;;;;;;;;;4129615;28;20065;-63
2022/02/24 04:25:29;;;;;;;1.08;0.30;;;;;;;;;;4129810;28;20499;-60
2022/02/24 04:27:30;;;;;;;0.43;0.25;;;;;;;;;;4144405;28;20115;-61
2022/02/24 04:29:32;;;;;;;0.85;0.65;;;;;;;;;;4144970;28;20110;-62
2022/02/24 04:31:33;;;;;;;0.80;0.30;;;;;;;;;;4128601;28;20054;-60
2022/02/24 04:33:34;;;;;;;1.15;0.40;;;;;;;;;;4129776;28;20050;-62
2022/02/24 04:35:36;;;;;;;1.33;0.32;;;;;;;;;;4129549;28;20486;-63
2022/02/24 04:37:37;;;;;;;1.00;0.30;;;;;;;;;;4129932;28;20186;-60
2022/02/24 04:39:38;;;;;;;0.98;0.40;;;;;;;;;;4112442;28;20058;-62
2022/02/24 04:41:39;;;;;;;1.23;0.25;;;;;;;;;;4129608;28;20058;-59
2022/02/24 04:43:40;;;;;;;0.80;0.15;;;;;;;;;;4114862;28;20113;-62
2022/02/24 04:45:42;;;;;;;1.90;0.40;;;;;;;;;;4132602;28;20104;-62
2022/02/24 04:47:43;;;;;;;0.82;0.40;;;;;;;;;;4130734;28;20058;-61
2022/02/24 04:49:44;;;;;;;2.00;0.55;;;;;;;;;;4132328;28;20124;-62
2022/02/24 04:51:45;;;;;;;0.88;0.45;;;;;;;;;;4132291;28;20414;-61
2022/02/24 04:53:46;;;;;;;1.52;0.30;;;;;;;;;;4132746;28;20058;-62
2022/02/24 04:55:47;;;;;;;0.68;0.30;;;;;;;;;;4131235;28;20506;-62
2022/02/24 04:57:49;;;;;;;0.98;0.22;;;;;;;;;;4115197;28;20051;-62
2022/02/24 04:59:50;;;;;;;0.60;0.45;;;;;;;;;;4132374;28;20561;-62
2022/02/24 05:01:51;;;;;;;1.30;0.60;;;;;;;;;;4131775;28;20089;-62
2022/02/24 05:03:52;;;;;;;1.35;0.40;;;;;;;;;;4132132;28;20454;-62
2022/02/24 05:05:53;;;;;;;0.60;0.32;;;;;;;;;;4132174;28;20104;-62
2022/02/24 05:07:54;;;;;;;1.98;0.38;;;;;;;;;;4132076;28;20100;-62
2022/02/24 05:09:55;;;;;;;0.70;0.30;;;;;;;;;;4132102;28;20387;-63
2022/02/24 05:11:56;;;;;;;2.08;0.40;;;;;;;;;;4130991;28;20081;-61
2022/02/24 05:13:57;;;;;;;0.85;0.22;;;;;;;;;;4132140;28;20429;-64
2022/02/24 05:15:58;;;;;;;1.00;0.30;;;;;;;;;;4132159;28;20836;-60
2022/02/24 05:18:00;;;;;;;0.60;0.30;;;;;;;;;;4131535;28;20054;-61
2022/02/24 05:20:01;;;;;;;0.95;0.50;;;;;;;;;;4132024;28;20463;-62
2022/02/24 05:22:02;;;;;;;1.17;0.35;;;;;;;;;;4132045;28;20198;-63
2022/02/24 05:24:04;;;;;;;1.20;0.40;;;;;;;;;;4147035;28;20061;-63
2022/02/24 05:26:05;;;;;;;1.23;0.30;;;;;;;;;;4130500;28;20226;-63
2022/02/24 05:28:07;;;;;;;2.00;0.60;;;;;;;;;;4148257;28;20100;-62
2022/02/24 05:30:10;;;;;;;1.58;0.40;;;;;;;;;;4130963;28;20101;-60
2022/02/24 05:32:12;;;;;;;1.05;0.35;;;;;;;;;;4147412;28;20108;-60
2022/02/24 05:34:13;;;;;;;0.77;0.30;;;;;;;;;;4147938;28;20497;-59
2022/02/24 05:36:14;;;;;;;1.45;0.45;;;;;;;;;;4148037;28;20069;-63
2022/02/24 05:38:15;;;;;;;0.65;0.30;;;;;;;;;;4148138;28;20062;-62
2022/02/24 05:40:17;;;;;;;0.57;0.20;;;;;;;;;;4146706;28;20053;-62
2022/02/24 05:42:18;;;;;;;0.50;0.30;;;;;;;;;;4147895;28;20053;-63
2022/02/24 05:44:20;;;;;;;1.30;0.50;;;;;;;;;;4113564;28;20454;-58
2022/02/24 05:46:21;;;;;;;2.15;0.52;;;;;;;;;;4130770;28;20059;-63
2022/02/24 05:48:22;;;;;;;2.22;0.70;;;;;;;;;;4131089;28;20066;-62
2022/02/24 05:50:23;;;;;;;2.22;0.57;;;;;;;;;;4131892;28;20085;-57
2022/02/24 05:52:24;;;;;;;0.85;0.25;;;;;;;;;;4131538;28;20404;-63
2022/02/24 05:54:25;;;;;;;0.70;0.30;;;;;;;;;;4131021;28;20104;-59
2022/02/24 05:56:28;;;;;;;0.73;0.30;;;;;;;;;;4131393;28;20061;-62
2022/02/24 05:58:29;;;;;;;0.60;0.17;;;;;;;;;;4131236;28;20577;-59
2022/02/24 06:00:30;;;;;;;0.95;0.35;;;;;;;;;;4110331;28;20054;-60
2022/02/24 06:02:32;;;;;;;0.90;0.40;;;;;;;;;;4127727;28;20536;-61
2022/02/24 06:04:33;;;;;;;2.25;0.43;;;;;;;;;;4129390;28;20059;-62
2022/02/24 06:06:34;;;;;;;0.80;0.35;;;;;;;;;;4111988;28;20067;-56
2022/02/24 06:08:35;;;;;;;1.52;0.32;;;;;;;;;;4129146;28;20097;-61
2022/02/24 06:10:36;;;;;;;1.27;0.38;;;;;;;;;;4129090;28;20065;-61
2022/02/24 06:12:37;;;;;;;2.70;0.77;;;;;;;;;;4128914;28;20062;-60
2022/02/24 06:14:39;;;;;;;0.82;0.30;;;;;;;;;;4129412;28;20062;-59
2022/02/24 06:16:40;;;;;;;1.25;0.38;;;;;;;;;;4128822;28;20073;-62
2022/02/24 06:18:41;;;;;;;0.95;0.28;;;;;;;;;;4111842;28;20552;-61
2022/02/24 06:20:42;;;;;;;1.48;0.43;;;;;;;;;;4128725;28;20088;-61
2022/02/24 06:22:45;;;;;;;0.90;0.22;;;;;;;;;;4126755;28;20128;-60
2022/02/24 06:24:46;;;;;;;0.82;0.30;;;;;;;;;;4126513;28;20080;-49
2022/02/24 06:26:47;;;;;;;1.33;0.40;;;;;;;;;;4127392;28;20065;-52
2022/02/24 06:28:49;;;;;;;0.30;0.10;;;;;;;;;;4128252;28;20513;-53
2022/02/24 06:30:50;;;;;;;0.93;0.30;;;;;;;;;;4131552;28;20066;-51
2022/02/24 06:32:51;;;;;;;1.02;0.25;;;;;;;;;;4132632;28;20152;-51
2022/02/24 06:34:54;;;;;;;0.77;0.22;;;;;;;;;;4128587;28;20059;-50
2022/02/24 06:36:55;;;;;;;0.98;0.25;;;;;;;;;;4128145;28;20494;-52
2022/02/24 06:38:57;;;;;;;0.60;0.22;;;;;;;;;;4112413;28;20078;-49
2022/02/24 06:40:58;;;;;;;1.17;0.30;;;;;;;;;;4128949;28;20446;-49
2022/02/24 06:43:00;;;;;;;0.60;0.40;;;;;;;;;;4128613;28;20061;-52
2022/02/24 06:45:01;;;;;;;1.30;0.40;;;;;;;;;;4129521;28;20400;-49
2022/02/24 06:47:02;;;;;;;0.82;0.30;;;;;;;;;;4127831;28;20108;-49
2022/02/24 06:49:04;;;;;;;1.08;0.30;;;;;;;;;;4111004;28;20140;-54
2022/02/24 06:51:07;;;;;;;0.50;0.30;;;;;;;;;;4100111;28;20079;-48
2022/02/24 06:53:09;;;;;;;0.20;0.15;;;;;;;;;;4127025;28;20116;-49
2022/02/24 06:55:10;;;;;;;1.52;0.30;;;;;;;;;;4120166;28;20163;-51
2022/02/24 06:57:11;;;;;;;1.38;0.43;;;;;;;;;;4128384;28;20061;-53
2022/02/24 06:59:13;;;;;;;0.40;0.20;;;;;;;;;;4132252;28;20081;-49
2022/02/24 07:01:14;;;;;;;0.80;0.20;;;;;;;;;;4133231;28;20050;-52
2022/02/24 07:03:15;;;;;;;0.80;0.40;;;;;;;;;;4097701;28;20424;-52
2022/02/24 07:05:16;;;;;;;1.15;0.40;;;;;;;;;;4124941;28;20569;-47
2022/02/24 07:07:17;;;;;;;1.00;0.30;;;;;;;;;;4131980;28;20462;-50
2022/02/24 07:09:19;;;;;;;1.13;0.30;;;;;;;;;;4111481;28;20547;-52
2022/02/24 07:11:20;;;;;;;0.55;0.20;;;;;;;;;;4114171;28;20118;-50
2022/02/24 07:13:21;;;;;;;1.00;0.40;;;;;;;;;;4129376;28;20062;-47
2022/02/24 07:15:22;;;;;;;0.95;0.47;;;;;;;;;;4127416;28;20425;-51
2022/02/24 07:17:24;;;;;;;1.15;0.30;;;;;;;;;;4098049;28;20058;-52
2022/02/24 07:19:25;;;;;;;0.80;0.20;;;;;;;;;;4123398;28;20164;-51
2022/02/24 07:21:26;;;;;;;0.65;0.30;;;;;;;;;;4104170;28;20117;-54
2022/02/24 07:23:27;;;;;;;0.55;0.30;;;;;;;;;;4129747;28;20046;-56
2022/02/24 07:25:28;;;;;;;0.57;0.25;;;;;;;;;;4116216;28;20108;-54
2022/02/24 07:27:29;;;;;;;1.40;0.50;;;;;;;;;;4123331;28;20333;-56
2022/02/24 07:29:30;;;;;;;0.63;0.25;;;;;;;;;;4122773;28;20568;-54
2022/02/24 07:31:33;;;;;;;0.63;0.25;;;;;;;;;;4105191;28;20074;-50
2022/02/24 07:33:34;;;;;;;0.77;0.30;;;;;;;;;;4121324;28;20062;-54
2022/02/24 07:35:35;;;;;;;1.25;0.40;;;;;;;;;;4118141;28;20066;-49
2022/02/24 07:37:37;;;;;;;0.93;0.25;;;;;;;;;;4104672;28;20444;-52
2022/02/24 07:39:39;;;;;;;0.90;0.30;;;;;;;;;;4117750;28;20046;-56
2022/02/24 07:41:41;;;;;;;1.00;0.38;;;;;;;;;;4119754;28;20065;-55
2022/02/24 07:43:42;;;;;;;0.60;0.20;;;;;;;;;;4123482;28;20137;-51
2022/02/24 07:45:43;;;;;;;0.70;0.30;;;;;;;;;;4105500;28;20106;-54
2022/02/24 07:47:44;;;;;;;1.30;0.38;;;;;;;;;;4118924;28;20054;-51
2022/02/24 07:49:45;;;;;;;0.40;0.28;;;;;;;;;;4096210;28;20114;-57
2022/02/24 07:51:48;;;;;;;1.90;0.50;;;;;;;;;;4112607;28;20664;-55
2022/02/24 07:53:49;;;;;;;0.20;0.20;;;;;;;;;;4119800;28;20557;-54
2022/02/24 07:55:50;;;;;;;0.60;0.20;;;;;;;;;;4119878;28;20062;-55
2022/02/24 07:57:52;;;;;;;1.05;0.35;;;;;;;;;;4067495;29;20055;-51
2022/02/24 07:59:54;;;;;;;2.63;0.60;;;;;;;;;;4108599;28;20114;-54
2022/02/24 08:01:55;;;;;;;0.88;0.20;;;;;;;;;;4104669;28;20581;-51
2022/02/24 08:03:56;;;;;;;0.17;0.17;;;;;;;;;;4115673;28;20478;-51
2022/02/24 08:05:58;;;;;;;0.52;0.30;;;;;;;;;;4116059;28;20121;-55
2022/02/24 08:07:59;;;;;;;1.83;0.45;;;;;;;;;;4112301;28;20069;-54
2022/02/24 08:10:00;;;;;;;0.90;0.60;;;;;;;;;;4126327;28;20138;-52
2022/02/24 08:14:21;;;;;;;0.82;0.25;;;;;;;;;;4110924;28;20108;-53
2022/02/24 08:16:22;;;;;;;0.68;0.40;;;;;;;;;;4116178;28;20417;-52
2022/02/24 08:18:23;;;;;;;1.17;0.40;;;;;;;;;;4100853;28;20204;-55
2022/02/24 08:20:24;;;;;;;1.20;0.50;;;;;;;;;;4106102;28;20046;-53
2022/02/24 08:22:26;;;;;;;1.15;0.30;;;;;;;;;;4092936;28;20058;-50
2022/02/24 08:24:27;;;;;;;1.15;0.30;;;;;;;;;;4114239;28;20454;-51
2022/02/24 08:26:28;;;;;;;0.98;0.40;;;;;;;;;;4113587;28;20059;-57
2022/02/24 08:28:30;;;;;;;0.80;0.30;;;;;;;;;;4102927;28;20149;-55
2022/02/24 08:30:31;;;;;;;0.82;0.30;;;;;;;;;;4118041;28;20132;-55
2022/02/24 08:32:32;;;;;;;1.05;0.40;;;;;;;;;;4114986;28;20112;-53
2022/02/24 08:34:33;;;;;;;1.42;0.40;;;;;;;;;;4115624;28;20565;-54
2022/02/24 08:36:34;;;;;;;0.60;0.32;;;;;;;;;;4091110;28;20127;-53
2022/02/24 08:38:35;;;;;;;2.28;0.30;;;;;;;;;;4108927;28;20388;-56
2022/02/24 08:40:37;;;;;;;2.22;0.45;;;;;;;;;;4110162;28;20116;-51
2022/02/24 08:42:38;;;;;;;0.85;0.30;;;;;;;;;;4113206;28;20054;-52
2022/02/24 08:44:43;;;;;;;2.15;0.38;;;;;;;;;;4096891;28;20556;-52
2022/02/24 08:46:44;;;;;;;1.48;0.43;;;;;;;;;;4111128;28;20133;-51
2022/02/24 08:48:45;;;;;;;0.70;0.32;;;;;;;;;;4114243;28;20058;-53
2022/02/24 08:50:47;;;;;;;1.40;0.30;;;;;;;;;;4110464;28;20062;-56
2022/02/24 08:52:48;;;;;;;1.85;0.40;;;;;;;;;;4118625;28;20403;-53
2022/02/24 08:54:49;;;;;;;0.47;0.35;;;;;;;;;;4113400;28;20117;-49
2022/02/24 08:56:50;;;;;;;1.27;0.30;;;;;;;;;;4116576;28;20102;-52
2022/02/24 08:58:51;;;;;;;0.40;0.30;;;;;;;;;;4113820;28;20252;-58
2022/02/24 09:00:52;;;;;;;0.30;0.20;;;;;;;;;;4110622;28;20419;-53
2022/02/24 09:02:53;;;;;;;1.38;0.40;;;;;;;;;;4111651;28;20344;-59
2022/02/24 09:04:54;;;;;;;1.42;0.50;;;;;;;;;;4116917;28;20082;-55
2022/02/24 09:06:56;;;;;;;0.63;0.40;;;;;;;;;;4103672;28;20185;-52
2022/02/24 09:08:57;;;;;;;0.82;0.30;;;;;;;;;;4110734;28;20249;-56
2022/02/24 09:10:58;;;;;;;0.93;0.40;;;;;;;;;;4116581;28;20062;-56
2022/02/24 09:13:00;;;;;;;0.75;0.30;;;;;;;;;;4112822;28;20604;-52
2022/02/24 09:15:02;;;;;;;0.77;0.30;;;;;;;;;;4118479;28;20487;-54
2022/02/24 09:17:03;;;;;;;2.15;0.30;;;;;;;;;;4112651;28;20104;-61
2022/02/24 09:19:05;;;;;;;1.13;0.38;;;;;;;;;;4115468;28;20544;-56
2022/02/24 09:21:06;;;;;;;1.70;0.57;;;;;;;;;;4111582;28;20503;-57
2022/02/24 09:23:10;;;;;;;0.93;0.50;;;;;;;;;;4127923;28;20054;-63
2022/02/24 09:25:11;;;;;;;0.52;0.20;;;;;;;;;;4108714;28;20471;-59
2022/02/24 09:27:13;;;;;;;0.55;0.20;;;;;;;;;;4081766;28;20150;-54
2022/02/24 09:29:17;;;;;;;1.02;0.38;;;;;;;;;;4101648;28;20113;-59
2022/02/24 09:31:20;;;;;;;0.82;0.40;;;;;;;;;;4083279;28;20070;-57
2022/02/24 09:33:21;;;;;;;0.50;0.30;;;;;;;;;;4101957;28;20078;-54
2022/02/24 09:35:23;;;;;;;0.52;0.30;;;;;;;;;;4102965;28;20269;-57
2022/02/24 09:37:25;;;;;;;1.90;0.30;;;;;;;;;;4101720;28;20129;-56
2022/02/24 09:39:26;;;;;;;0.20;0.20;;;;;;;;;;4100128;28;20728;-55
2022/02/24 09:41:27;;;;;;;0.80;0.40;;;;;;;;;;4104958;28;20131;-55
2022/02/24 09:43:29;;;;;;;1.98;0.50;;;;;;;;;;4080995;28;20102;-55
2022/02/24 09:45:30;;;;;;;0.93;0.30;;;;;;;;;;4103637;28;20054;-57
2022/02/24 09:47:31;;;;;;;0.50;0.35;;;;;;;;;;4089197;28;20066;-55
2022/02/24 09:49:33;;;;;;;0.90;0.40;;;;;;;;;;4089166;28;20098;-54
2022/02/24 09:51:34;;;;;;;1.08;0.40;;;;;;;;;;4102987;28;20130;-56
2022/02/24 09:53:36;;;;;;;1.58;0.30;;;;;;;;;;4098094;28;20059;-54
2022/02/24 09:55:37;;;;;;;0.80;0.30;;;;;;;;;;4102890;28;20399;-56
2022/02/24 09:57:38;;;;;;;1.05;0.32;;;;;;;;;;4086393;28;20577;-54
2022/02/24 09:59:39;;;;;;;0.73;0.45;;;;;;;;;;4098071;28;20712;-49
2022/02/24 10:01:41;;;;;;;0.65;0.40;;;;;;;;;;4102097;28;20113;-55
2022/02/24 10:03:48;;;;;;;0.80;0.30;;;;;;;;;;4117228;28;20058;-49
2022/02/24 10:05:49;;;;;;;1.67;0.30;;;;;;;;;;4110195;28;20495;-56
2022/02/24 10:07:52;;;;;;;2.00;0.50;;;;;;;;;;4102842;28;20396;-50
2022/02/24 10:09:53;;;;;;;0.47;0.35;;;;;;;;;;4103504;28;20055;-56
2022/02/24 10:12:10;;;;;;;0.80;0.57;;;;;;;;;;4104536;28;20388;-49
2022/02/24 10:14:24;;;;;;;1.48;0.38;;;;;;;;;;4103637;28;20345;-56
2022/02/24 10:16:27;;;;;;;0.52;0.30;;;;;;;;;;4100255;28;20133;-56
2022/02/24 10:18:33;;;;;;;0.20;0.20;;;;;;;;;;4097504;28;20106;-52
2022/02/24 10:20:56;;;;;;;0.40;0.30;;;;;;;;;;4102077;28;20058;-49
2022/02/24 10:22:57;;;;;;;1.08;0.40;;;;;;;;;;4104753;28;20059;-54
2022/02/24 10:25:01;;;;;;;0.40;0.32;;;;;;;;;;4104886;28;20558;-55
2022/02/24 10:27:15;;;;;;;0.65;0.28;;;;;;;;;;4091155;28;20153;-54
2022/02/24 10:29:21;;;;;;;0.50;0.38;;;;;;;;;;4099194;28;20089;-56
2022/02/24 10:31:24;;;;;;;0.77;0.35;;;;;;;;;;4102247;28;20066;-53
2022/02/24 10:33:29;;;;;;;0.50;0.20;;;;;;;;;;4100892;28;20097;-56
2022/02/24 10:35:38;;;;;;;0.35;0.30;;;;;;;;;;4103725;28;20070;-53
2022/02/24 10:37:39;;;;;;;0.95;0.40;;;;;;;;;;4104681;28;20059;-54
2022/02/24 10:39:41;;;;;;;3.42;0.38;;;;;;;;;;4105269;28;20141;-53
2022/02/24 10:41:44;;;;;;;0.77;0.30;;;;;;;;;;4107115;28;20747;-54
2022/02/24 10:43:47;;;;;;;0.22;0.20;;;;;;;;;;4104850;28;20078;-53
2022/02/24 10:46:02;;;;;;;2.22;0.30;;;;;;;;;;4100240;28;20057;-56
2022/02/24 10:48:05;;;;;;;0.93;0.30;;;;;;;;;;4126130;28;20107;-54
2022/02/24 10:50:06;;;;;;;0.47;0.20;;;;;;;;;;4106425;28;20506;-55
2022/02/24 10:52:12;;;;;;;0.52;0.38;;;;;;;;;;4083952;28;20063;-51
2022/02/24 10:54:14;;;;;;;1.05;0.60;;;;;;;;;;4106959;28;20070;-54
2022/02/24 10:56:15;;;;;;;0.35;0.30;;;;;;;;;;4109872;28;20055;-56
2022/02/24 10:58:16;;;;;;;0.63;0.32;;;;;;;;;;4114725;28;21954;-51
2022/02/24 11:00:20;;;;;;;0.20;0.20;;;;;;;;;;4110230;28;20105;-52
2022/02/24 11:02:23;;;;;;;0.30;0.20;;;;;;;;;;4102842;28;20113;-55
2022/02/24 11:04:24;;;;;;;0.30;0.20;;;;;;;;;;4107822;28;20050;-52
2022/02/24 11:06:27;;;;;;;0.35;0.20;;;;;;;;;;4106564;28;20062;-53
2022/02/24 11:08:30;;;;;;;0.45;0.10;;;;;;;;;;4091922;28;20054;-55
2022/02/24 11:10:31;;;;;;;0.82;0.13;;;;;;;;;;4106346;28;20295;-56
2022/02/24 11:12:33;;;;;;;1.55;0.22;;;;;;;;;;4100523;28;20118;-54
2022/02/24 11:14:35;;;;;;;0.52;0.20;;;;;;;;;;4085503;28;20090;-55
2022/02/24 11:16:36;;;;;;;0.82;0.30;;;;;;;;;;4100180;28;20059;-51
2022/02/24 11:18:38;;;;;;;0.63;0.25;;;;;;;;;;4104433;28;20074;-55
2022/02/24 11:20:40;;;;;;;1.50;0.30;;;;;;;;;;4097967;28;20055;-55
2022/02/24 11:22:41;;;;;;;0.63;0.30;;;;;;;;;;4100356;28;20135;-51
2022/02/24 11:24:43;;;;;;;1.50;0.30;;;;;;;;;;4102104;28;20066;-53
2022/02/24 11:26:49;;;;;;;0.30;0.10;;;;;;;;;;4104960;28;20058;-53
2022/02/24 11:29:23;;;;;;;0.40;0.10;;;;;;;;;;4087996;28;20059;-53
2022/02/24 11:31:39;;;;;;;1.08;0.30;;;;;;;;;;4101502;28;20074;-60
2022/02/24 11:33:40;;;;;;;0.88;0.15;;;;;;;;;;4089151;28;20476;-51
2022/02/24 11:35:42;;;;;;;0.55;0.20;;;;;;;;;;4105065;28;20125;-52
2022/02/24 11:37:47;;;;;;;1.20;0.30;;;;;;;;;;4101730;28;20126;-52
2022/02/24 11:39:59;;;;;;;0.95;0.25;;;;;;;;;;4083134;28;20054;-51
2022/02/24 11:42:00;;;;;;;0.85;0.20;;;;;;;;;;4103850;28;20046;-56
2022/02/24 11:44:01;;;;;;;0.43;0.20;;;;;;;;;;4104536;28;20042;-53
2022/02/24 11:46:05;;;;;;;0.32;0.28;;;;;;;;;;4084417;28;20054;-55
2022/02/24 11:48:28;;;;;;;0.50;0.30;;;;;;;;;;4099058;28;22110;-54
2022/02/24 11:50:53;;;;;;;0.60;0.30;;;;;;;;;;4095100;28;20509;-51
2022/02/24 11:52:54;;;;;;;0.25;0.25;;;;;;;;;;4106486;28;20113;-51
2022/02/24 11:54:57;;;;;;;0.10;0.10;;;;;;;;;;4107536;28;20051;-52
2022/02/24 11:57:29;;;;;;;0.40;0.17;;;;;;;;;;4103341;28;20069;-51
2022/02/24 11:59:30;;;;;;;0.63;0.17;;;;;;;;;;4091302;28;20672;-54
2022/02/24 12:01:43;;;;;;;0.45;0.15;;;;;;;;;;4095818;28;20063;-55
2022/02/24 12:03:44;;;;;;;0.40;0.20;;;;;;;;;;4096684;28;20427;-47
2022/02/24 12:06:05;;;;;;;0.80;0.40;;;;;;;;;;4108188;28;20054;-52
2022/02/24 12:08:10;;;;;;;0.90;0.40;;;;;;;;;;4104189;28;20466;-53
2022/02/24 12:10:12;;;;;;;0.95;0.30;;;;;;;;;;4106406;28;20318;-47
2022/02/24 12:12:23;;;;;;;0.40;0.20;;;;;;;;;;4102773;28;20062;-52
2022/02/24 12:14:27;;;;;;;0.30;0.25;;;;;;;;;;4103185;28;22543;-53